Time;durP1;ratioP1;P1;durP2;ratioP2;P2;SDS_P1;SDS_P2;PMS_P1;PMS_P2;Temp;Humidity;BMP_temperature;BMP_pressure;BME280_temperature;BME280_humidity;BME280_pressure;Samples;Min_cycle;Max_cycle;Signal;HPM_P1;HPM_P2
2022/08/20 00:00:52;;;;;;;11.60;7.63;;;;;;;19.70;62.48;93199.44;5042408;28;20525;-59
2022/08/20 00:03:26;;;;;;;11.10;7.13;;;;;;;19.74;62.97;93199.66;5039077;28;20102;-63
2022/08/20 00:05:59;;;;;;;9.30;7.32;;;;;;;19.69;62.82;93190.31;5046083;28;20090;-61
2022/08/20 00:08:25;;;;;;;10.65;7.75;;;;;;;19.49;63.05;93178.69;5033028;28;20559;-58
2022/08/20 00:10:53;;;;;;;8.20;6.43;;;;;;;19.60;62.83;93185.59;5050494;28;20033;-59
2022/08/20 00:13:23;;;;;;;8.45;7.43;;;;;;;19.59;63.28;93184.88;5050927;28;20032;-61
2022/08/20 00:15:49;;;;;;;15.75;8.38;;;;;;;19.60;63.08;93183.53;5051031;28;20021;-63
2022/08/20 00:18:15;;;;;;;12.98;8.32;;;;;;;19.44;63.60;93162.28;5048789;28;20051;-60
2022/08/20 00:20:43;;;;;;;7.90;7.13;;;;;;;19.66;62.73;93199.94;5045216;28;20086;-60
2022/08/20 00:23:09;;;;;;;12.05;7.55;;;;;;;19.56;62.78;93202.16;5041964;28;20025;-60
2022/08/20 00:25:35;;;;;;;9.95;7.63;;;;;;;19.58;62.58;93196.69;5041579;28;20029;-60
2022/08/20 00:28:02;;;;;;;8.32;6.95;;;;;;;19.36;63.60;93190.53;5041141;28;20490;-61
2022/08/20 00:30:29;;;;;;;9.18;7.82;;;;;;;19.36;63.43;93187.75;5040192;28;20039;-60
2022/08/20 00:33:00;;;;;;;8.07;7.28;;;;;;;19.35;63.45;93177.91;5038750;28;20028;-63
2022/08/20 00:35:29;;;;;;;8.05;7.10;;;;;;;19.35;63.37;93177.91;5041495;28;20033;-65
2022/08/20 00:37:54;;;;;;;12.60;7.93;;;;;;;19.16;63.98;93178.16;5038624;28;20025;-65
2022/08/20 00:40:24;;;;;;;10.55;7.72;;;;;;;19.19;63.88;93179.72;5041611;28;20051;-65
2022/08/20 00:42:56;;;;;;;10.27;7.35;;;;;;;19.21;63.85;93185.44;5038834;28;20029;-64
2022/08/20 00:45:22;;;;;;;9.35;7.30;;;;;;;19.08;64.21;93174.88;5020513;28;20024;-64
2022/08/20 00:47:48;;;;;;;10.73;7.97;;;;;;;19.08;64.14;93162.97;5042324;28;20051;-65
2022/08/20 00:50:18;;;;;;;8.07;7.03;;;;;;;19.22;64.27;93174.97;5048428;28;20120;-65
2022/08/20 00:52:47;;;;;;;10.73;8.13;;;;;;;19.21;63.87;93174.25;5047960;28;20039;-65
2022/08/20 00:55:13;;;;;;;8.40;6.93;;;;;;;19.21;64.35;93174.25;5029813;28;20337;-65
2022/08/20 00:57:42;;;;;;;11.73;7.43;;;;;;;19.13;64.58;93168.19;5028638;28;20044;-65
2022/08/20 01:00:12;;;;;;;11.77;7.68;;;;;;;19.14;64.42;93174.50;5047637;28;20413;-65
2022/08/20 01:02:38;;;;;;;9.70;8.10;;;;;;;19.12;64.32;93175.13;5047491;28;20521;-65
2022/08/20 01:05:06;;;;;;;9.55;7.00;;;;;;;19.17;64.25;93170.47;5026985;28;20114;-65
2022/08/20 01:07:33;;;;;;;10.13;8.05;;;;;;;19.23;64.20;93176.44;5027073;28;20029;-65
2022/08/20 01:10:07;;;;;;;9.05;7.75;;;;;;;18.98;64.82;93177.09;5028217;28;20577;-65
2022/08/20 01:12:32;;;;;;;9.50;7.38;;;;;;;18.95;64.72;93174.78;5010700;28;20029;-65
2022/08/20 01:14:59;;;;;;;9.15;8.05;;;;;;;18.76;65.32;93170.19;5028559;28;20450;-65
2022/08/20 01:17:28;;;;;;;10.70;7.60;;;;;;;18.81;64.93;93171.88;5011023;28;20033;-65
2022/08/20 01:20:10;;;;;;;10.75;7.80;;;;;;;18.83;65.28;93169.22;5012502;28;20104;-65
2022/08/20 01:25:45;;;;;;;8.23;6.78;;;;;;;18.97;65.19;93167.25;5010728;28;20049;-65
2022/08/20 01:28:12;;;;;;;;;;;;;;;18.87;65.03;93170.19;5010084;28;20106;-65
2022/08/20 01:30:37;;;;;;;10.05;7.70;;;;;;;18.76;65.38;93172.97;5025582;28;20000;-64
2022/08/20 01:33:04;;;;;;;8.95;7.13;;;;;;;18.80;65.20;93170.41;5009352;28;20245;-65
2022/08/20 01:35:29;;;;;;;8.68;7.20;;;;;;;18.80;64.93;93156.44;5010627;28;20062;-65
2022/08/20 01:37:55;;;;;;;9.02;8.13;;;;;;;18.57;65.80;93156.47;5025617;28;20050;-66
2022/08/20 01:40:54;;;;;;;9.70;7.70;;;;;;;18.65;65.74;93165.31;5010566;28;20026;-65
2022/08/20 01:43:19;;;;;;;;;;;;;;;18.65;66.04;93156.94;5009927;28;20100;-65
2022/08/20 01:45:44;;;;;;;12.65;7.80;;;;;;;18.68;65.56;93164.13;5010513;28;20004;-65
2022/08/20 01:48:10;;;;;;;8.60;7.70;;;;;;;18.65;66.02;93154.88;5010361;28;20018;-65
2022/08/20 01:50:38;;;;;;;15.50;7.28;;;;;;;18.60;65.39;93161.56;5009223;28;20496;-66
2022/08/20 01:53:38;;;;;;;9.10;7.57;;;;;;;18.70;64.75;93158.66;5010412;28;20018;-65
2022/08/20 01:56:06;;;;;;;9.32;7.60;;;;;;;18.38;65.96;93142.72;4998454;28;20034;-65
2022/08/20 01:58:33;;;;;;;9.48;7.72;;;;;;;18.48;66.07;93143.34;5010157;28;20091;-66
2022/08/20 02:00:59;;;;;;;8.88;7.50;;;;;;;18.51;65.54;93144.91;5010079;28;20041;-65
2022/08/20 02:03:25;;;;;;;10.80;8.18;;;;;;;18.35;66.39;93135.53;5009888;28;20014;-66
2022/08/20 02:05:52;;;;;;;10.73;8.05;;;;;;;18.46;66.01;93141.16;5010085;28;20056;-64
2022/08/20 02:08:19;;;;;;;10.52;8.05;;;;;;;18.49;66.24;93147.59;5010260;28;20026;-64
2022/08/20 02:10:45;;;;;;;9.05;7.65;;;;;;;18.51;66.42;93150.50;5009990;28;20057;-64
2022/08/20 02:13:12;;;;;;;12.95;8.70;;;;;;;18.42;66.79;93132.50;5010301;28;20022;-65
2022/08/20 02:15:38;;;;;;;9.32;8.10;;;;;;;18.33;67.25;93135.41;5010199;28;20033;-65
2022/08/20 02:18:09;;;;;;;9.75;7.47;;;;;;;18.41;66.73;93138.72;5010316;28;20025;-65
2022/08/20 02:20:34;;;;;;;9.57;7.88;;;;;;;18.36;66.87;93134.94;5010264;28;20072;-65
2022/08/20 02:23:00;;;;;;;9.43;7.93;;;;;;;18.37;67.10;93135.66;5012903;28;20033;-63
2022/08/20 02:25:28;;;;;;;9.27;7.40;;;;;;;18.42;66.49;93132.50;5053293;28;20032;-65
2022/08/20 02:27:55;;;;;;;9.75;8.25;;;;;;;18.47;65.85;93133.50;5053033;28;20028;-65
2022/08/20 02:30:26;;;;;;;8.63;7.70;;;;;;;18.20;66.65;93133.94;5053294;28;20029;-65
2022/08/20 02:32:51;;;;;;;9.05;7.30;;;;;;;18.29;66.65;93129.56;5053253;28;20116;-65
2022/08/20 02:35:17;;;;;;;8.82;7.93;;;;;;;18.35;66.51;93133.47;5053138;28;20100;-65
2022/08/20 02:37:43;;;;;;;11.20;8.13;;;;;;;18.39;65.88;93124.59;5053145;28;20417;-65
2022/08/20 02:40:12;;;;;;;9.85;7.53;;;;;;;18.38;65.80;93126.66;5053110;28;20470;-65
2022/08/20 02:42:42;;;;;;;9.57;7.38;;;;;;;18.05;66.44;93123.97;5053120;28;20037;-65
2022/08/20 02:45:10;;;;;;;10.32;8.40;;;;;;;17.96;66.67;93122.03;5052570;28;20460;-65
2022/08/20 02:47:36;;;;;;;8.50;7.33;;;;;;;18.02;66.61;93124.44;5052940;28;20087;-64
2022/08/20 02:50:03;;;;;;;9.60;8.23;;;;;;;17.84;67.14;93124.06;5052962;28;20025;-65
2022/08/20 02:52:29;;;;;;;10.30;8.57;;;;;;;17.86;66.70;93113.03;5052813;28;20040;-65
2022/08/20 02:54:54;;;;;;;9.38;7.97;;;;;;;18.06;66.65;93130.31;5052879;28;20401;-64
2022/08/20 02:57:20;;;;;;;9.43;7.63;;;;;;;18.05;66.69;93128.84;5052763;28;20025;-65
2022/08/20 02:59:51;;;;;;;14.00;7.28;;;;;;;17.92;66.35;93123.84;5052742;28;20029;-65
2022/08/20 03:02:17;;;;;;;7.93;6.75;;;;;;;18.07;66.12;93126.16;5052358;28;20051;-65
2022/08/20 03:04:43;;;;;;;9.93;7.53;;;;;;;18.07;66.47;93134.53;5052524;28;20047;-65
2022/08/20 03:07:09;;;;;;;12.65;7.63;;;;;;;18.06;66.57;93135.88;5052281;28;20028;-65
2022/08/20 03:09:35;;;;;;;8.68;7.20;;;;;;;17.91;67.07;93137.06;5052464;28;20021;-65
2022/08/20 03:12:01;;;;;;;10.15;8.07;;;;;;;17.74;67.70;93142.97;5052243;28;20025;-65
2022/08/20 03:14:27;;;;;;;7.70;6.90;;;;;;;17.73;67.81;93130.38;5052353;28;20025;-65
2022/08/20 03:16:53;;;;;;;11.35;8.73;;;;;;;17.68;68.10;93133.50;5034746;28;20406;-65
2022/08/20 03:19:18;;;;;;;8.60;7.70;;;;;;;17.75;68.29;93132.53;5052317;28;20409;-65
2022/08/20 03:21:44;;;;;;;12.35;8.13;;;;;;;17.81;68.48;93127.34;5047480;28;20470;-65
2022/08/20 03:24:09;;;;;;;8.00;7.18;;;;;;;17.88;67.65;93134.75;5051866;28;20648;-64
2022/08/20 03:26:35;;;;;;;9.98;8.07;;;;;;;17.85;67.34;93130.38;5052188;28;20035;-65
2022/08/20 03:29:00;;;;;;;10.25;7.43;;;;;;;17.72;67.54;93134.47;5051917;28;20057;-65
2022/08/20 03:31:26;;;;;;;10.20;8.50;;;;;;;17.75;67.17;93141.66;5051756;28;20032;-64
2022/08/20 03:33:51;;;;;;;23.45;20.08;;;;;;;17.72;67.21;93131.69;5051832;28;20025;-64
2022/08/20 03:36:18;;;;;;;13.02;11.10;;;;;;;17.79;67.44;93146.75;5052014;28;20033;-65
2022/08/20 03:38:43;;;;;;;13.57;9.80;;;;;;;17.79;67.85;93135.59;5052009;28;20040;-64
2022/08/20 03:41:09;;;;;;;13.15;10.80;;;;;;;17.64;68.11;93136.03;5051732;28;20037;-64
2022/08/20 03:43:36;;;;;;;22.27;12.10;;;;;;;17.66;68.28;93136.91;5051752;28;20517;-65
2022/08/20 03:46:02;;;;;;;14.77;8.88;;;;;;;17.73;67.87;93140.78;5051910;28;20403;-64
2022/08/20 03:48:28;;;;;;;9.32;8.38;;;;;;;17.67;67.65;93143.91;5050601;28;20057;-64
2022/08/20 03:50:54;;;;;;;11.55;8.15;;;;;;;17.64;67.94;93142.34;5051442;28;20572;-64
2022/08/20 03:53:20;;;;;;;10.88;7.75;;;;;;;17.63;68.39;93148.56;5051734;28;20414;-64
2022/08/20 03:55:47;;;;;;;9.98;8.25;;;;;;;17.64;68.73;93136.03;5051340;28;20021;-64
2022/08/20 03:58:13;;;;;;;11.35;8.52;;;;;;;17.65;68.49;93149.38;5051417;28;20104;-64
2022/08/20 04:00:45;;;;;;;10.50;8.63;;;;;;;17.65;68.53;93134.72;5051588;28;20033;-64
2022/08/20 04:03:10;;;;;;;10.18;8.02;;;;;;;17.70;69.11;93142.72;5051725;28;20028;-63
2022/08/20 04:05:40;;;;;;;10.35;8.95;;;;;;;17.71;68.72;93144.19;5051139;28;20464;-63
2022/08/20 04:08:08;;;;;;;12.23;9.48;;;;;;;17.62;68.96;93147.81;5051394;28;20039;-64
2022/08/20 04:10:34;;;;;;;10.17;8.77;;;;;;;17.78;68.19;93146.03;5051107;28;20029;-64
2022/08/20 04:13:01;;;;;;;13.05;7.93;;;;;;;17.82;68.24;93151.84;5051036;28;20024;-64
2022/08/20 04:15:27;;;;;;;9.80;7.82;;;;;;;17.87;67.53;93138.88;5033177;28;20029;-63
2022/08/20 04:17:53;;;;;;;9.27;7.85;;;;;;;17.74;67.16;93126.22;5051008;28;20031;-64
2022/08/20 04:20:24;;;;;;;9.50;7.30;;;;;;;17.84;67.17;93135.25;5050838;28;20032;-64
2022/08/20 04:22:51;;;;;;;15.27;8.32;;;;;;;17.77;67.72;93133.41;5046377;28;20024;-64
2022/08/20 04:25:16;;;;;;;10.68;8.00;;;;;;;17.92;67.56;93138.53;5050586;28;20129;-64
2022/08/20 04:27:42;;;;;;;10.77;8.02;;;;;;;17.97;67.64;93137.47;5050809;28;20064;-64
2022/08/20 04:30:13;;;;;;;10.52;7.88;;;;;;;17.98;68.08;93140.97;5051013;28;20040;-64
2022/08/20 04:32:41;;;;;;;11.27;7.38;;;;;;;18.06;67.64;93141.47;5050659;28;20535;-63
2022/08/20 04:35:10;;;;;;;11.23;7.70;;;;;;;18.13;67.03;93143.28;5050976;28;20044;-63
2022/08/20 04:37:38;;;;;;;10.85;7.20;;;;;;;18.16;67.20;93142.81;5050444;28;20024;-63
2022/08/20 04:42:50;;;;;;;10.82;8.20;;;;;;;18.19;68.39;93144.38;5050603;28;20039;-63
2022/08/20 04:45:15;;;;;;;11.38;7.70;;;;;;;18.35;67.81;93138.31;5050009;28;20025;-63
2022/08/20 04:47:41;;;;;;;10.02;7.97;;;;;;;18.31;67.99;93136.03;5049307;28;20055;-63
2022/08/20 04:50:08;;;;;;;11.27;7.93;;;;;;;18.28;68.30;93119.75;5050401;28;20391;-63
2022/08/20 04:52:34;;;;;;;11.20;8.05;;;;;;;18.39;68.71;93133.69;5050691;28;20556;-63
2022/08/20 04:55:00;;;;;;;11.25;8.15;;;;;;;18.53;68.46;93131.06;5050349;28;20048;-63
2022/08/20 04:57:26;;;;;;;16.20;8.63;;;;;;;18.55;68.68;93126.31;5050250;28;20029;-63
2022/08/20 04:59:52;;;;;;;19.85;8.05;;;;;;;18.66;67.90;93120.00;5050635;28;20040;-63
2022/08/20 05:02:19;;;;;;;13.73;8.77;;;;;;;18.70;67.91;93125.81;5050438;28;20024;-63
2022/08/20 05:04:45;;;;;;;15.18;7.82;;;;;;;18.75;68.46;93130.28;5050111;28;20086;-64
2022/08/20 05:07:12;;;;;;;12.43;8.93;;;;;;;18.83;68.10;93130.78;5050502;28;20421;-64
2022/08/20 05:09:37;;;;;;;10.15;8.23;;;;;;;18.88;67.51;93131.75;5050348;28;20307;-64
2022/08/20 05:12:03;;;;;;;31.90;8.88;;;;;;;18.92;68.11;93132.72;5032764;28;20033;-63
2022/08/20 05:14:30;;;;;;;16.70;8.65;;;;;;;18.95;68.12;93132.84;5050016;28;20116;-64
2022/08/20 05:16:59;;;;;;;15.20;8.38;;;;;;;19.04;67.90;93129.88;5050047;28;20082;-64
2022/08/20 05:19:24;;;;;;;13.23;8.40;;;;;;;19.22;67.74;93128.13;5050073;28;20029;-64
2022/08/20 05:21:52;;;;;;;8.35;7.55;;;;;;;19.31;68.01;93132.13;5045546;28;20040;-64
2022/08/20 05:34:53;;;;;;;14.88;9.05;;;;;;;20.52;64.46;93125.47;5079476;28;20691;-65
2022/08/20 05:37:20;;;;;;;8.52;7.28;;;;;;;20.53;64.61;93123.41;5064224;28;20060;-65
2022/08/20 05:39:46;;;;;;;10.48;7.78;;;;;;;20.50;65.32;93121.84;5075074;27;20054;-65
2022/08/20 05:42:12;;;;;;;8.48;7.68;;;;;;;20.56;65.91;93122.16;5148909;27;20414;-65
2022/08/20 05:44:40;;;;;;;8.50;7.38;;;;;;;20.64;66.78;93119.78;5149068;27;20039;-65
2022/08/20 05:47:06;;;;;;;12.07;8.25;;;;;;;20.74;66.26;93117.50;5148886;27;20042;-65
2022/08/20 05:49:32;;;;;;;17.08;9.23;;;;;;;20.75;65.96;93121.72;5148844;27;20114;-65
2022/08/20 05:51:59;;;;;;;11.30;8.65;;;;;;;20.79;65.79;93108.63;5147549;27;20023;-65
2022/08/20 05:54:24;;;;;;;10.45;8.73;;;;;;;20.89;65.67;93106.38;5148745;27;20022;-65
2022/08/20 05:56:50;;;;;;;16.40;8.98;;;;;;;21.02;65.66;93111.22;5133320;27;20021;-65
2022/08/20 05:59:16;;;;;;;9.68;8.68;;;;;;;21.10;66.56;93103.22;5043899;28;20100;-64
2022/08/20 06:01:42;;;;;;;12.45;8.90;;;;;;;21.18;65.93;93099.38;5043583;28;20029;-65
2022/08/20 06:04:25;;;;;;;10.07;8.70;;;;;;;21.27;65.63;93090.00;5107738;27;20057;-64
2022/08/20 06:07:11;;;;;;;15.77;10.60;;;;;;;21.45;65.48;93094.41;5149112;27;20030;-64
2022/08/20 06:09:36;;;;;;;14.52;11.00;;;;;;;21.56;65.06;93095.63;5148055;27;20121;-64
2022/08/20 06:12:05;;;;;;;19.27;11.18;;;;;;;21.68;64.28;93093.38;5148781;27;20291;-64
2022/08/20 06:14:31;;;;;;;17.50;12.70;;;;;;;21.84;64.00;93094.91;5148360;27;20554;-65
2022/08/20 06:17:03;;;;;;;16.20;12.40;;;;;;;22.08;62.48;93089.69;5148668;27;20038;-64
2022/08/20 06:19:28;;;;;;;20.67;12.27;;;;;;;22.32;62.69;93095.66;5148823;27;20022;-65
2022/08/20 06:21:55;;;;;;;17.20;11.57;;;;;;;22.43;63.32;93100.38;5125492;27;20040;-65
2022/08/20 06:24:20;;;;;;;14.77;10.13;;;;;;;22.71;61.52;93096.03;5043399;28;20021;-65
2022/08/20 06:26:46;;;;;;;9.35;8.52;;;;;;;22.92;61.69;93092.00;5043143;28;20461;-65
2022/08/20 06:29:11;;;;;;;20.15;9.82;;;;;;;22.95;60.82;93090.72;5043180;28;20082;-65
2022/08/20 06:31:38;;;;;;;12.68;7.63;;;;;;;23.12;59.61;93093.59;5042955;28;20524;-62
2022/08/20 06:34:04;;;;;;;36.58;9.23;;;;;;;23.22;58.85;93087.63;5039209;28;20594;-62
2022/08/20 06:36:29;;;;;;;11.57;8.02;;;;;;;23.47;58.52;93087.31;5030006;28;20033;-65
2022/08/20 06:38:57;;;;;;;12.75;7.32;;;;;;;23.64;57.74;93097.13;5029744;28;20115;-65
2022/08/20 06:41:23;;;;;;;11.38;7.95;;;;;;;23.77;56.72;93096.25;5029696;28;20029;-65
2022/08/20 06:43:50;;;;;;;15.68;8.07;;;;;;;23.86;56.36;93098.75;5029850;28;20026;-65
2022/08/20 06:46:16;;;;;;;13.02;7.78;;;;;;;23.97;56.78;93094.94;5029666;28;20040;-63
2022/08/20 06:48:41;;;;;;;14.90;7.53;;;;;;;24.11;54.73;93097.59;5029861;28;20029;-63
2022/08/20 06:51:08;;;;;;;7.68;6.85;;;;;;;24.35;56.31;93087.25;5029787;28;20095;-62
2022/08/20 06:53:34;;;;;;;8.38;6.70;;;;;;;24.43;53.16;93090.34;5029580;28;20310;-65
2022/08/20 06:55:59;;;;;;;7.97;6.78;;;;;;;24.76;54.15;93093.03;5029688;28;20155;-64
2022/08/20 06:58:25;;;;;;;9.32;6.18;;;;;;;24.88;52.18;93092.72;5029730;28;20502;-61
2022/08/20 07:00:51;;;;;;;8.88;6.72;;;;;;;25.31;53.08;93098.47;5029374;28;20108;-61
2022/08/20 07:03:16;;;;;;;10.15;6.00;;;;;;;25.66;49.45;93096.81;5029214;28;20038;-60
2022/08/20 07:05:43;;;;;;;6.93;5.95;;;;;;;25.93;48.07;93101.91;5029395;28;20133;-58
2022/08/20 07:08:14;;;;;;;8.10;5.70;;;;;;;26.06;48.57;93084.66;5029259;28;20053;-60
2022/08/20 07:10:41;;;;;;;9.45;6.28;;;;;;;26.12;47.48;93084.16;5029661;28;20451;-61
2022/08/20 07:13:08;;;;;;;10.82;6.93;;;;;;;26.22;48.58;93082.38;5029207;28;20033;-62
2022/08/20 07:15:34;;;;;;;8.25;6.28;;;;;;;26.34;47.62;93079.16;5029474;28;20026;-63
2022/08/20 07:18:02;;;;;;;12.23;8.00;;;;;;;26.66;46.21;93068.75;5029447;28;20058;-62
2022/08/20 07:20:32;;;;;;;12.60;7.18;;;;;;;26.91;45.58;93076.59;5029380;28;20511;-62
2022/08/20 07:22:58;;;;;;;10.48;6.15;;;;;;;27.15;44.37;93072.97;5028425;28;20034;-64
2022/08/20 07:25:23;;;;;;;13.52;7.00;;;;;;;27.51;45.31;93073.94;5029325;28;20100;-65
2022/08/20 07:27:50;;;;;;;7.22;5.68;;;;;;;27.83;43.27;93068.34;5029050;28;20528;-62
2022/08/20 07:33:03;;;;;;;8.60;5.57;;;;;;;28.32;42.34;93068.09;5009364;28;20515;-60
2022/08/20 07:35:29;;;;;;;8.60;5.70;;;;;;;28.56;41.87;93059.38;5009118;28;20467;-64
2022/08/20 07:37:55;;;;;;;11.20;5.82;;;;;;;28.99;40.36;93068.09;5009472;28;20026;-64
2022/08/20 07:40:26;;;;;;;12.07;5.93;;;;;;;29.18;39.08;93069.19;5009342;28;20112;-58
2022/08/20 07:42:55;;;;;;;7.25;5.07;;;;;;;29.51;39.44;93067.66;5009360;28;20455;-61
2022/08/20 07:45:21;;;;;;;5.78;5.20;;;;;;;29.75;38.45;93070.94;5008694;28;20037;-63
2022/08/20 07:47:48;;;;;;;14.32;8.88;;;;;;;29.84;38.54;93063.97;5008556;28;20029;-63
2022/08/20 07:50:18;;;;;;;8.90;6.22;;;;;;;30.16;38.67;93061.63;5009228;28;20114;-64
2022/08/20 07:52:44;;;;;;;10.65;5.78;;;;;;;30.45;36.18;93071.34;5009230;28;20464;-67
2022/08/20 07:55:13;;;;;;;6.38;5.25;;;;;;;30.51;36.43;93068.56;5008834;28;20482;-59
2022/08/20 07:57:39;;;;;;;7.78;6.03;;;;;;;30.79;37.94;93068.22;5008743;28;20087;-58
2022/08/20 08:00:07;;;;;;;16.52;5.70;;;;;;;30.95;36.13;93066.31;5008846;28;20045;-65
2022/08/20 08:02:34;;;;;;;8.23;4.95;;;;;;;31.04;36.40;93062.16;5009007;28;20034;-61
2022/08/20 08:05:00;;;;;;;9.82;6.20;;;;;;;31.34;37.59;93065.31;5127789;27;20027;-60
2022/08/20 08:07:26;;;;;;;7.28;5.45;;;;;;;31.43;34.91;93075.44;5132349;27;20543;-63
2022/08/20 08:09:53;;;;;;;8.57;6.18;;;;;;;31.25;34.73;93065.94;5132616;27;20037;-60
2022/08/20 08:12:19;;;;;;;13.85;6.07;;;;;;;31.48;35.88;93072.63;5130985;27;20080;-61
2022/08/20 08:14:45;;;;;;;6.63;5.70;;;;;;;31.47;35.75;93071.19;5132246;27;20034;-60
2022/08/20 08:17:11;;;;;;;7.90;5.30;;;;;;;31.55;35.31;93045.59;5130954;27;20019;-66
2022/08/20 08:19:40;;;;;;;8.13;6.22;;;;;;;31.77;33.93;93051.50;5131186;27;20034;-60
2022/08/20 08:22:11;;;;;;;9.38;6.35;;;;;;;31.92;35.10;93061.63;5101602;27;20108;-66
2022/08/20 08:24:37;;;;;;;6.10;5.43;;;;;;;32.15;34.85;93063.97;5028154;28;20102;-62
2022/08/20 08:27:03;;;;;;;11.98;5.60;;;;;;;32.18;34.04;93056.84;5027916;28;20040;-61
2022/08/20 08:29:29;;;;;;;7.03;5.30;;;;;;;32.02;34.48;93058.88;5028010;28;20029;-64
2022/08/20 08:31:55;;;;;;;7.15;5.40;;;;;;;32.42;33.56;93044.16;5027781;28;20056;-61
2022/08/20 08:34:24;;;;;;;14.02;6.30;;;;;;;32.72;34.51;93050.06;5027714;28;20128;-63
2022/08/20 08:36:50;;;;;;;6.07;5.40;;;;;;;32.61;33.65;93048.56;5028204;28;20021;-62
2022/08/20 08:39:16;;;;;;;16.25;8.05;;;;;;;33.20;33.13;93035.97;5028157;28;20539;-65
2022/08/20 08:41:48;;;;;;;6.70;5.57;;;;;;;33.33;32.95;93057.47;5028121;28;20041;-62
2022/08/20 08:44:22;;;;;;;6.55;5.95;;;;;;;32.93;33.27;93060.16;5026950;28;20025;-61
2022/08/20 08:46:49;;;;;;;8.48;5.65;;;;;;;32.76;33.87;93050.09;5026610;28;20064;-63
2022/08/20 08:49:21;;;;;;;9.97;5.33;;;;;;;32.74;33.61;93047.94;5026607;28;20096;-62
2022/08/20 08:51:51;;;;;;;6.18;5.38;;;;;;;33.08;33.80;93055.25;5027758;28;20494;-63
2022/08/20 08:54:19;;;;;;;8.52;5.95;;;;;;;33.46;32.77;93049.66;5026461;28;20029;-62
2022/08/20 08:56:47;;;;;;;6.35;5.50;;;;;;;33.86;32.81;93034.69;5027558;28;20421;-60
2022/08/20 08:59:12;;;;;;;10.38;5.60;;;;;;;34.09;31.53;93047.63;5027517;28;20075;-58
2022/08/20 09:01:44;;;;;;;6.53;5.85;;;;;;;34.18;31.87;93049.03;5027845;28;20033;-62
2022/08/20 09:04:11;;;;;;;8.38;6.03;;;;;;;34.26;31.84;93046.88;5090798;27;20027;-63
2022/08/20 09:06:39;;;;;;;7.25;5.72;;;;;;;34.16;31.11;93041.16;5131360;27;20027;-63
2022/08/20 09:09:05;;;;;;;5.97;5.47;;;;;;;34.11;31.18;93054.03;5131691;27;20034;-60
2022/08/20 09:11:35;;;;;;;7.32;5.78;;;;;;;34.25;31.02;93039.72;5131614;27;20107;-61
2022/08/20 09:14:01;;;;;;;9.05;5.53;;;;;;;34.35;30.81;93051.16;5129955;27;20092;-64
2022/08/20 09:16:27;;;;;;;7.85;5.88;;;;;;;34.47;30.37;93044.69;5131493;27;20023;-61
2022/08/20 09:18:53;;;;;;;8.02;5.95;;;;;;;34.79;30.07;93044.63;5131502;27;20468;-63
2022/08/20 09:21:18;;;;;;;8.18;5.97;;;;;;;34.94;30.16;93039.56;5131419;28;20027;-65
2022/08/20 09:23:44;;;;;;;8.70;6.15;;;;;;;35.20;29.22;93048.09;5028417;28;20116;-59
2022/08/20 09:26:10;;;;;;;9.00;5.65;;;;;;;34.78;30.25;93034.59;5027184;28;20086;-65
2022/08/20 09:28:35;;;;;;;7.05;5.70;;;;;;;34.90;29.41;93031.69;5027552;28;20029;-66
2022/08/20 09:31:02;;;;;;;6.13;5.53;;;;;;;35.13;29.60;93032.34;5044822;28;20023;-61
2022/08/20 09:33:27;;;;;;;8.80;5.65;;;;;;;35.46;29.70;93030.00;5129557;28;20079;-64
2022/08/20 09:35:53;;;;;;;6.25;5.22;;;;;;;35.49;29.19;93032.19;5131097;28;20115;-63
2022/08/20 09:38:19;;;;;;;6.85;5.15;;;;;;;35.38;27.66;93035.81;5130962;28;20111;-62
2022/08/20 09:40:44;;;;;;;6.50;5.40;;;;;;;34.96;28.69;93031.66;5131084;28;20050;-64
2022/08/20 09:43:10;;;;;;;10.10;5.55;;;;;;;35.40;29.13;93030.78;5130871;28;20031;-62
2022/08/20 09:45:35;;;;;;;6.65;4.88;;;;;;;35.29;28.01;93026.53;5130921;28;20034;-63
2022/08/20 09:48:01;;;;;;;8.70;6.47;;;;;;;35.37;28.91;93023.59;5131229;28;20027;-65
2022/08/20 09:50:30;;;;;;;7.22;5.45;;;;;;;35.37;28.77;93029.34;5130014;28;20449;-65
2022/08/20 09:52:57;;;;;;;6.30;4.70;;;;;;;35.57;27.37;93026.38;5131190;28;20023;-62
2022/08/20 09:55:29;;;;;;;5.78;5.10;;;;;;;35.93;26.67;93027.59;5131109;28;20031;-64
2022/08/20 09:57:55;;;;;;;8.23;5.22;;;;;;;36.13;27.37;93027.44;5129578;28;20562;-64
2022/08/20 10:00:20;;;;;;;5.25;4.70;;;;;;;36.38;26.63;93011.41;5129896;28;20153;-63
2022/08/20 10:02:47;;;;;;;5.43;4.93;;;;;;;36.79;26.05;93020.34;5126248;28;20468;-62
2022/08/20 10:05:13;;;;;;;4.97;4.30;;;;;;;37.02;24.37;93028.00;5027148;28;20025;-64
2022/08/20 10:07:39;;;;;;;5.20;4.70;;;;;;;36.78;25.60;93021.78;5027044;28;20030;-61
2022/08/20 10:10:07;;;;;;;8.27;5.80;;;;;;;37.04;25.05;93025.09;5028371;28;20029;-63
2022/08/20 10:12:33;;;;;;;5.50;4.68;;;;;;;37.53;24.50;93015.88;5030488;28;20463;-62
2022/08/20 10:14:58;;;;;;;8.30;6.00;;;;;;;38.33;23.11;93014.66;5030375;28;20033;-65
2022/08/20 10:17:24;;;;;;;5.35;4.85;;;;;;;38.28;23.03;93007.53;5030385;28;20398;-64
2022/08/20 10:19:49;;;;;;;4.57;4.00;;;;;;;37.94;21.96;93023.19;5029869;28;20117;-64
2022/08/20 10:22:15;;;;;;;4.97;4.50;;;;;;;37.88;22.51;93011.75;5029263;28;20029;-63
2022/08/20 10:24:41;;;;;;;6.00;4.75;;;;;;;37.90;22.28;93017.47;5029890;28;20029;-63
2022/08/20 10:27:06;;;;;;;7.10;4.78;;;;;;;37.62;22.28;93011.41;5029871;28;20040;-64
2022/08/20 10:29:32;;;;;;;4.57;4.18;;;;;;;37.70;22.45;93008.41;5029917;28;20025;-64
2022/08/20 10:32:11;;;;;;;8.57;3.90;;;;;;;38.28;22.45;93004.63;5029784;28;20037;-63
2022/08/20 10:34:39;;;;;;;11.43;4.50;;;;;;;38.97;23.65;93001.22;5029694;28;20049;-64
2022/08/20 10:37:04;;;;;;;5.10;3.97;;;;;;;39.16;21.36;93004.44;5030126;28;20104;-62
2022/08/20 10:39:30;;;;;;;6.00;4.13;;;;;;;39.80;21.75;92996.59;5029669;28;20340;-64
2022/08/20 10:41:55;;;;;;;5.95;5.32;;;;;;;40.68;21.52;93005.97;5030046;28;20049;-63
2022/08/20 10:44:21;;;;;;;9.25;4.03;;;;;;;40.01;20.00;92994.66;5029519;28;20064;-64
2022/08/20 10:46:46;;;;;;;8.95;4.68;;;;;;;39.85;20.39;92981.25;5029627;28;20029;-61
2022/08/20 10:49:12;;;;;;;9.98;4.75;;;;;;;39.66;20.89;92988.22;5029587;28;20036;-62
2022/08/20 10:51:37;;;;;;;6.88;3.80;;;;;;;40.54;20.86;92991.19;5029844;28;20106;-62
2022/08/20 10:54:02;;;;;;;6.78;4.25;;;;;;;41.06;20.54;92981.09;5029546;28;20456;-62
2022/08/20 10:56:28;;;;;;;4.50;4.07;;;;;;;41.07;19.67;92987.56;5028619;28;20052;-61
2022/08/20 10:58:54;;;;;;;5.68;4.40;;;;;;;40.74;19.49;92970.38;5029447;28;20447;-63
2022/08/20 11:01:19;;;;;;;5.25;3.83;;;;;;;41.23;18.84;92984.22;5029614;28;20045;-63
2022/08/20 11:03:45;;;;;;;7.25;4.25;;;;;;;41.26;18.84;92976.94;5076579;27;20564;-63
2022/08/20 11:06:10;;;;;;;4.35;3.83;;;;;;;41.45;18.16;92975.63;5133595;27;20411;-64
2022/08/20 11:08:36;;;;;;;4.50;4.10;;;;;;;40.99;18.54;92973.31;5133584;27;20091;-64
2022/08/20 11:11:02;;;;;;;4.20;3.80;;;;;;;40.95;18.77;92962.56;5133818;27;20113;-65
2022/08/20 11:13:28;;;;;;;5.07;3.90;;;;;;;41.38;18.91;92968.59;5133453;27;20559;-64
2022/08/20 11:15:53;;;;;;;6.35;3.65;;;;;;;41.09;18.29;92982.44;5047595;27;20029;-65
2022/08/20 11:18:19;;;;;;;8.95;4.07;;;;;;;40.19;19.56;92981.94;5029214;28;20056;-64
2022/08/20 11:20:45;;;;;;;3.60;3.30;;;;;;;40.85;19.62;92979.53;5029077;28;20025;-64
2022/08/20 11:23:10;;;;;;;4.95;3.20;;;;;;;40.91;17.14;92976.47;5028348;28;20029;-63
2022/08/20 11:25:36;;;;;;;5.03;4.50;;;;;;;41.43;18.71;92978.56;5027951;28;20033;-63
2022/08/20 11:28:02;;;;;;;5.15;3.80;;;;;;;41.61;18.62;92970.81;5028890;28;20089;-63
2022/08/20 11:30:32;;;;;;;4.47;3.72;;;;;;;41.67;18.80;92967.75;5029014;28;20573;-64
2022/08/20 11:32:59;;;;;;;4.90;3.70;;;;;;;40.15;18.12;92967.56;5130284;27;20051;-63
2022/08/20 11:35:26;;;;;;;4.95;3.55;;;;;;;39.50;18.52;92977.03;5133402;27;20388;-64
2022/08/20 11:37:53;;;;;;;4.68;3.65;;;;;;;39.09;19.37;92956.94;5133255;27;20413;-58
2022/08/20 11:40:19;;;;;;;6.18;4.07;;;;;;;39.21;20.94;92956.69;5132469;27;20038;-59
2022/08/20 11:42:46;;;;;;;4.13;3.40;;;;;;;38.87;19.78;92945.84;5133101;27;20027;-61
2022/08/20 11:45:12;;;;;;;4.80;4.00;;;;;;;38.71;19.87;92949.78;5132824;27;20102;-59
2022/08/20 11:47:37;;;;;;;4.50;3.40;;;;;;;38.64;21.18;92940.50;5132866;27;20145;-62